Time;durP1;ratioP1;P1;durP2;ratioP2;P2;SDS_P1;SDS_P2;PMS_P1;PMS_P2;Temp;Humidity;BMP_temperature;BMP_pressure;BME280_temperature;BME280_humidity;BME280_pressure;Samples;Min_cycle;Max_cycle;Signal;HPM_P1;HPM_P2
2022/04/22 00:00:38;;;;;;;47.15;25.33;;;;;;;7.69;76.66;100035.47;5089857;27;20045;-69
2022/04/22 00:03:05;;;;;;;42.45;24.25;;;;;;;7.74;76.33;100036.09;5089055;27;20035;-69
2022/04/22 00:05:30;;;;;;;40.15;22.70;;;;;;;7.76;76.02;100044.84;5104307;27;20058;-69
2022/04/22 00:07:55;;;;;;;42.65;23.55;;;;;;;7.74;75.99;100036.94;5103314;27;20162;-69
2022/04/22 00:10:19;;;;;;;37.60;23.08;;;;;;;7.72;75.74;100032.66;5107157;27;20185;-69
2022/04/22 00:12:44;;;;;;;36.75;22.60;;;;;;;7.74;75.55;100036.09;5069290;27;20037;-67
2022/04/22 00:15:09;;;;;;;36.95;22.15;;;;;;;7.73;75.32;100031.72;5107818;27;20091;-68
2022/04/22 00:17:34;;;;;;;41.90;23.08;;;;;;;7.76;75.63;100032.44;5106912;27;20031;-68
2022/04/22 00:19:59;;;;;;;40.42;23.00;;;;;;;7.80;75.18;100036.59;5108437;27;20082;-72
2022/04/22 00:22:24;;;;;;;45.13;24.92;;;;;;;7.84;75.73;100035.50;5089204;27;20031;-70
2022/04/22 00:24:49;;;;;;;43.15;24.30;;;;;;;7.89;75.49;100040.59;5072924;27;20103;-68
2022/04/22 00:27:13;;;;;;;39.97;23.52;;;;;;;7.91;75.79;100030.72;5108973;27;20413;-73
2022/04/22 00:29:38;;;;;;;38.17;23.30;;;;;;;7.93;75.33;100031.50;5070372;27;20374;-68
2022/04/22 00:32:03;;;;;;;43.70;26.08;;;;;;;7.94;75.05;100038.53;5104481;27;20158;-68
2022/04/22 00:34:41;;;;;;;40.28;23.23;;;;;;;7.96;74.84;100036.66;5105586;27;20039;-68
2022/04/22 00:37:05;;;;;;;45.20;25.00;;;;;;;7.96;75.52;100036.66;5103855;27;20066;-68
2022/04/22 00:39:30;;;;;;;41.85;23.05;;;;;;;7.95;75.21;100033.13;5068610;27;20034;-67
2022/04/22 00:41:55;;;;;;;43.35;23.55;;;;;;;7.97;74.68;100038.38;5091727;27;20038;-67
2022/04/22 00:44:20;;;;;;;40.03;22.30;;;;;;;7.99;74.90;100036.50;5106509;27;20039;-69
2022/04/22 00:46:45;;;;;;;37.80;23.13;;;;;;;7.99;74.43;100036.50;5112897;27;20054;-68
2022/04/22 00:49:09;;;;;;;46.25;23.52;;;;;;;7.99;74.55;100031.19;5106897;27;20064;-67
2022/04/22 00:51:34;;;;;;;41.80;24.77;;;;;;;7.97;74.94;100035.72;5120855;27;20045;-68
2022/04/22 00:54:02;;;;;;;40.83;24.17;;;;;;;7.99;75.06;100031.19;5115876;27;20047;-66
2022/04/22 00:56:27;;;;;;;40.33;24.73;;;;;;;7.99;75.29;100026.72;5109743;27;20039;-66
2022/04/22 00:58:52;;;;;;;50.28;25.85;;;;;;;8.00;74.56;100022.28;5111026;27;20532;-68
2022/04/22 01:01:17;;;;;;;49.40;26.00;;;;;;;8.00;74.80;100022.28;5106371;27;20039;-67
2022/04/22 01:11:55;;;;;;;48.58;24.52;;;;;;;7.99;74.25;100017.91;5089266;27;20117;-71
2022/04/22 01:14:20;;;;;;;51.63;26.25;;;;;;;7.94;74.73;100019.94;5105855;27;20121;-72
2022/04/22 01:16:44;;;;;;;51.03;26.70;;;;;;;7.94;75.17;100019.94;5087556;27;20440;-66
2022/04/22 01:19:09;;;;;;;44.08;25.08;;;;;;;7.94;74.72;100012.84;5085609;27;20045;-68
2022/04/22 01:21:34;;;;;;;44.03;25.02;;;;;;;7.93;74.80;99997.84;5089310;27;20065;-67
2022/04/22 01:23:59;;;;;;;52.03;28.00;;;;;;;7.95;74.80;100000.41;5086182;27;20047;-68
2022/04/22 01:26:23;;;;;;;49.97;28.20;;;;;;;7.91;74.55;100004.16;5107775;27;20048;-64
2022/04/22 01:28:50;;;;;;;52.28;26.85;;;;;;;7.88;75.32;100002.56;5115692;27;20053;-64
2022/04/22 01:31:15;;;;;;;51.92;28.02;;;;;;;7.88;75.20;100007.03;5115783;27;20535;-61
2022/04/22 01:33:39;;;;;;;54.22;27.25;;;;;;;7.89;75.01;100009.59;5116350;27;20492;-64
2022/04/22 01:36:05;;;;;;;47.83;27.00;;;;;;;7.88;75.60;100002.56;5115910;27;20043;-65
2022/04/22 01:38:30;;;;;;;49.78;26.92;;;;;;;7.87;75.76;100003.50;5116014;27;20100;-64
2022/04/22 01:40:57;;;;;;;49.60;27.33;;;;;;;7.89;75.58;100004.28;5115691;27;20038;-64
2022/04/22 01:43:22;;;;;;;47.25;26.05;;;;;;;7.92;75.02;100000.56;5115241;27;20479;-72
2022/04/22 01:45:47;;;;;;;52.70;27.92;;;;;;;7.93;75.14;100004.94;5080444;27;20800;-71
2022/04/22 01:48:11;;;;;;;47.00;26.98;;;;;;;7.94;75.44;100001.34;5079930;27;20102;-64
2022/04/22 01:50:36;;;;;;;57.92;27.88;;;;;;;7.94;75.19;100006.66;5114051;27;20030;-70
2022/04/22 01:53:01;;;;;;;48.83;25.75;;;;;;;7.95;75.61;100000.41;5112652;27;20091;-67
2022/04/22 01:55:27;;;;;;;58.83;27.40;;;;;;;7.96;75.00;100005.66;5115582;27;20042;-67
2022/04/22 01:57:53;;;;;;;56.20;28.52;;;;;;;7.98;75.63;100000.25;5090372;27;20070;-65
2022/04/22 02:00:17;;;;;;;59.88;30.13;;;;;;;7.98;74.90;100001.13;5087099;27;20465;-65
2022/04/22 02:02:42;;;;;;;55.28;26.05;;;;;;;8.00;74.99;100001.91;5106223;27;20461;-66
2022/04/22 02:05:07;;;;;;;59.22;28.75;;;;;;;8.00;75.12;100006.34;5087114;27;20042;-65
2022/04/22 02:07:33;;;;;;;53.67;29.95;;;;;;;7.99;75.40;100009.94;5076476;27;20104;-66
2022/04/22 02:09:57;;;;;;;55.25;27.33;;;;;;;7.98;74.70;100009.09;5085094;27;20065;-66
2022/04/22 02:12:22;;;;;;;51.10;26.52;;;;;;;7.98;75.35;100018.84;5105571;27;20046;-66
2022/04/22 02:14:47;;;;;;;56.70;28.90;;;;;;;7.97;75.16;100011.81;5103251;27;20039;-67
2022/04/22 02:17:12;;;;;;;50.08;27.05;;;;;;;7.98;75.32;100013.53;5086071;27;20031;-65
2022/04/22 02:19:37;;;;;;;54.50;28.88;;;;;;;7.97;75.32;100020.63;5109693;27;20103;-64
2022/04/22 02:22:02;;;;;;;57.95;28.40;;;;;;;7.98;75.38;100017.06;5108912;27;20042;-64
2022/04/22 02:24:26;;;;;;;52.50;26.30;;;;;;;8.00;74.75;100014.31;5107124;27;20091;-64
2022/04/22 02:29:37;;;;;;;48.97;25.33;;;;;;;8.05;75.04;100009.59;5091905;27;20125;-70
2022/04/22 02:32:02;;;;;;;56.78;28.88;;;;;;;8.05;74.65;100008.72;5096638;27;20042;-65
2022/04/22 02:34:26;;;;;;;51.60;25.95;;;;;;;8.04;75.14;100018.50;5081266;27;20034;-68
2022/04/22 02:36:51;;;;;;;54.20;28.58;;;;;;;8.03;74.68;100014.13;5099211;27;20127;-66
2022/04/22 02:39:17;;;;;;;57.33;28.92;;;;;;;8.05;75.21;100009.59;5103534;27;20821;-67
2022/04/22 02:47:09;;;;;;;52.90;26.35;;;;;;;8.10;74.77;100007.56;5097404;27;20043;-66
2022/04/22 02:49:34;;;;;;;49.95;26.30;;;;;;;8.13;74.53;100009.16;5100305;27;20046;-66
2022/04/22 02:51:59;;;;;;;48.92;26.15;;;;;;;8.17;74.65;100011.56;5089871;27;20071;-65
2022/04/22 02:54:23;;;;;;;49.45;26.40;;;;;;;8.19;75.04;100009.69;5100535;27;20069;-65
2022/04/22 02:56:52;;;;;;;52.85;26.48;;;;;;;8.23;74.93;100007.72;5119143;27;20046;-66
2022/04/22 02:59:18;;;;;;;46.05;26.20;;;;;;;8.25;74.58;100008.47;5081686;27;20091;-67
2022/04/22 03:01:43;;;;;;;49.60;26.48;;;;;;;8.27;74.59;100009.25;5100113;27;20046;-65
2022/04/22 03:04:09;;;;;;;44.55;25.23;;;;;;;8.29;74.62;100008.22;5118019;27;20046;-66
2022/04/22 03:06:34;;;;;;;48.55;27.00;;;;;;;8.30;74.38;100020.56;5121701;27;20070;-66
2022/04/22 03:08:58;;;;;;;48.65;26.23;;;;;;;8.30;74.01;100012.59;5120272;27;20131;-64
2022/04/22 03:11:23;;;;;;;41.63;24.63;;;;;;;8.31;74.03;100006.38;5118947;27;20098;-62
2022/04/22 03:13:52;;;;;;;46.05;25.00;;;;;;;8.33;73.93;100014.25;5100056;27;20523;-65
2022/04/22 03:16:23;;;;;;;46.10;25.02;;;;;;;8.36;73.61;100014.94;5082474;27;20087;-65
2022/04/22 03:18:48;;;;;;;38.75;21.85;;;;;;;8.33;74.36;100014.25;5115730;27;20034;-62
2022/04/22 03:21:13;;;;;;;54.47;25.10;;;;;;;8.31;73.82;100013.47;5118221;27;20034;-62
2022/04/22 03:23:37;;;;;;;48.90;25.42;;;;;;;8.30;74.14;100009.09;5118535;27;20088;-66
2022/04/22 03:26:02;;;;;;;44.60;26.23;;;;;;;8.30;73.55;100020.56;5084955;27;20039;-62
2022/04/22 03:28:27;;;;;;;43.05;24.60;;;;;;;8.29;73.63;100013.53;5115573;27;20083;-62
2022/04/22 03:30:52;;;;;;;46.63;26.65;;;;;;;8.31;74.30;100011.69;5114111;27;20026;-61
2022/04/22 03:33:18;;;;;;;37.78;24.25;;;;;;;8.32;74.27;100009.91;5115805;27;20046;-60
2022/04/22 03:35:43;;;;;;;42.28;24.60;;;;;;;8.32;74.06;100016.06;5117974;27;20535;-62
2022/04/22 03:38:08;;;;;;;41.13;22.45;;;;;;;8.36;74.08;100014.94;5118174;27;20098;-62
2022/04/22 03:40:33;;;;;;;42.85;23.70;;;;;;;8.41;73.97;100013.81;5117661;27;20114;-62
2022/04/22 03:42:57;;;;;;;35.20;21.92;;;;;;;8.43;73.46;100014.59;5117407;27;20184;-62
2022/04/22 03:45:22;;;;;;;41.95;23.48;;;;;;;8.45;73.47;100018.03;5117769;27;20508;-63
2022/04/22 03:47:47;;;;;;;38.17;22.13;;;;;;;8.48;73.63;100017.84;5117583;27;20106;-61
2022/04/22 03:50:11;;;;;;;42.15;23.38;;;;;;;8.51;73.54;100017.66;5116912;27;20172;-63
2022/04/22 03:52:36;;;;;;;34.47;22.08;;;;;;;8.52;73.91;100022.91;5117248;27;20038;-64
2022/04/22 03:55:01;;;;;;;40.67;23.10;;;;;;;8.54;73.29;100022.81;5081988;27;20054;-65
2022/04/22 04:00:09;;;;;;;35.05;22.02;;;;;;;8.49;73.03;100020.41;5117683;27;20130;-64
2022/04/22 04:02:35;;;;;;;34.47;21.98;;;;;;;8.46;73.15;100025.06;5113726;27;20038;-64
2022/04/22 04:05:00;;;;;;;33.67;20.98;;;;;;;8.42;72.80;100024.38;5107841;27;20046;-63
2022/04/22 04:07:25;;;;;;;32.42;20.35;;;;;;;8.40;73.53;100020.06;5116618;27;20050;-63
2022/04/22 04:17:59;;;;;;;32.92;20.83;;;;;;;8.23;73.81;100021.00;5100653;27;20035;-63
2022/04/22 04:23:17;;;;;;;37.92;21.23;;;;;;;8.12;73.83;100020.75;5101591;27;20046;-62
2022/04/22 04:25:43;;;;;;;36.05;20.70;;;;;;;8.05;73.74;100019.34;5118290;27;20046;-62
2022/04/22 04:28:11;;;;;;;34.65;20.73;;;;;;;8.00;73.93;100019.63;5092151;27;20046;-63
2022/04/22 04:30:40;;;;;;;38.22;20.88;;;;;;;7.93;74.70;100026.19;5074456;27;20109;-62
2022/04/22 04:33:05;;;;;;;37.28;20.77;;;;;;;7.84;74.83;100018.72;5095449;27;20836;-64
2022/04/22 04:35:30;;;;;;;42.72;21.38;;;;;;;7.82;75.00;100017.94;5098967;27;20047;-68
2022/04/22 04:37:55;;;;;;;52.63;21.55;;;;;;;7.82;75.35;100026.78;5099847;27;20038;-64
2022/04/22 04:40:19;;;;;;;33.65;19.25;;;;;;;7.83;75.76;100019.66;5100864;27;20099;-62
2022/04/22 04:42:44;;;;;;;37.30;19.55;;;;;;;7.83;75.78;100028.50;5119214;27;20126;-66
2022/04/22 04:45:09;;;;;;;37.80;19.35;;;;;;;7.86;75.63;100023.03;5082454;27;20046;-65
2022/04/22 04:47:41;;;;;;;28.90;16.90;;;;;;;7.93;76.03;100026.19;5118655;27;20031;-68
2022/04/22 04:50:07;;;;;;;31.40;18.13;;;;;;;7.96;75.21;100026.03;5082778;27;20064;-70
2022/04/22 04:52:31;;;;;;;28.30;16.77;;;;;;;7.95;74.87;100025.16;5099429;27;20034;-63
2022/04/22 04:54:57;;;;;;;28.58;15.52;;;;;;;7.96;75.11;100020.72;5102070;27;20055;-65
2022/04/22 04:57:23;;;;;;;26.23;16.05;;;;;;;7.96;74.55;100021.59;5107151;27;20058;-65
2022/04/22 04:59:48;;;;;;;26.85;16.60;;;;;;;8.00;74.82;100022.28;5113172;27;20085;-64
2022/04/22 05:02:13;;;;;;;23.75;15.48;;;;;;;8.08;74.71;100016.53;5104297;27;20035;-64
2022/04/22 05:04:37;;;;;;;25.25;15.32;;;;;;;8.13;74.51;100017.13;5100378;27;20053;-64
2022/04/22 05:07:02;;;;;;;26.23;15.77;;;;;;;8.18;74.60;100021.25;5095528;27;20641;-64
2022/04/22 05:09:27;;;;;;;23.90;13.77;;;;;;;8.30;73.93;100017.91;5096713;27;20100;-62
2022/04/22 05:11:52;;;;;;;30.30;16.02;;;;;;;8.26;73.40;100015.50;5095169;27;20039;-63
2022/04/22 05:14:19;;;;;;;24.60;15.23;;;;;;;8.23;73.14;100021.88;5096288;27;20443;-63
2022/04/22 05:16:44;;;;;;;26.65;15.80;;;;;;;8.26;72.95;100019.00;5096269;27;20053;-64
2022/04/22 05:19:08;;;;;;;29.33;15.93;;;;;;;8.29;73.16;100016.19;5096090;27;20054;-64
2022/04/22 05:21:33;;;;;;;30.88;17.48;;;;;;;8.20;72.98;100026.47;5095598;28;20084;-64
2022/04/22 05:23:58;;;;;;;29.30;15.43;;;;;;;8.20;72.93;100018.50;5096037;27;20043;-64
2022/04/22 05:26:24;;;;;;;28.70;16.98;;;;;;;8.16;72.97;100020.47;5096021;27;20085;-64
2022/04/22 05:28:49;;;;;;;30.02;17.55;;;;;;;8.21;73.25;100022.88;5095470;27;20401;-63
2022/04/22 05:33:56;;;;;;;28.13;15.68;;;;;;;8.36;72.46;100027.34;5094385;28;20047;-65
2022/04/22 05:36:21;;;;;;;30.02;15.77;;;;;;;8.26;72.98;100028.78;5095607;27;20039;-63
2022/04/22 05:38:46;;;;;;;23.20;14.52;;;;;;;8.22;72.86;100025.47;5095421;27;20035;-63
2022/04/22 05:41:10;;;;;;;19.38;11.75;;;;;;;8.35;72.28;100023.84;5094164;27;20039;-63
2022/04/22 05:43:37;;;;;;;23.45;11.45;;;;;;;8.25;71.59;100021.75;5094096;27;20058;-64
2022/04/22 05:46:01;;;;;;;16.98;11.10;;;;;;;8.22;71.82;100014.84;5094177;27;20049;-63
2022/04/22 05:48:28;;;;;;;19.70;9.48;;;;;;;8.28;72.00;100026.91;5095241;27;20043;-63
2022/04/22 05:50:52;;;;;;;21.83;13.57;;;;;;;8.28;71.83;100022.44;5094914;27;20075;-65
2022/04/22 05:53:17;;;;;;;24.90;11.73;;;;;;;8.30;72.11;100028.53;5096361;27;20074;-63
2022/04/22 05:55:42;;;;;;;22.40;12.98;;;;;;;8.42;72.35;100020.84;5095950;28;20496;-65
2022/04/22 05:58:07;;;;;;;20.92;11.93;;;;;;;8.59;72.32;100021.59;5094613;28;20122;-67
2022/04/22 06:00:32;;;;;;;19.98;11.73;;;;;;;8.81;71.77;100025.66;5097209;27;20070;-64
2022/04/22 06:02:57;;;;;;;22.58;12.40;;;;;;;8.97;71.13;100022.03;5095991;27;20051;-64
2022/04/22 06:05:23;;;;;;;18.60;10.93;;;;;;;9.16;70.80;100029.78;5097100;27;20053;-67
2022/04/22 06:10:31;;;;;;;20.92;10.98;;;;;;;9.27;69.77;100024.66;5115339;27;20061;-64
2022/04/22 06:10:33;;;;;;;20.98;10.02;;;;;;;9.37;69.16;100020.50;5103626;27;20070;-66
2022/04/22 06:12:59;;;;;;;17.10;10.20;;;;;;;9.39;69.25;100023.06;5120408;27;20066;-61
2022/04/22 06:15:24;;;;;;;18.40;9.63;;;;;;;9.34;68.87;100022.50;5122978;27;20042;-62
2022/04/22 06:17:49;;;;;;;15.30;8.85;;;;;;;9.37;68.66;100027.63;5122664;27;20560;-63
2022/04/22 06:20:15;;;;;;;19.23;10.57;;;;;;;9.37;68.82;100019.63;5070665;27;20046;-63
2022/04/22 06:22:41;;;;;;;19.55;8.93;;;;;;;9.36;68.22;100016.16;5120020;27;20512;-64
2022/04/22 06:25:08;;;;;;;14.55;8.98;;;;;;;9.40;67.81;100024.78;5119830;27;20043;-66
2022/04/22 06:27:34;;;;;;;17.85;7.65;;;;;;;9.58;67.34;100015.69;5119176;27;20403;-63
2022/04/22 06:30:04;;;;;;;18.55;7.82;;;;;;;9.67;67.54;100007.16;5101337;27;20106;-62
2022/04/22 06:32:29;;;;;;;10.50;7.53;;;;;;;9.75;66.71;100020.81;5083836;27;20039;-63
2022/04/22 06:34:54;;;;;;;12.85;7.47;;;;;;;9.88;65.79;100014.75;5119056;27;20174;-62
2022/04/22 06:37:19;;;;;;;13.13;7.80;;;;;;;9.92;65.12;100016.28;5101099;27;20494;-61
2022/04/22 06:47:56;;;;;;;14.60;7.20;;;;;;;10.15;64.21;100011.19;5118882;27;20042;-63
2022/04/22 06:50:21;;;;;;;8.85;6.38;;;;;;;10.24;64.01;100006.25;5100427;27;20045;-66
2022/04/22 06:52:46;;;;;;;15.02;7.35;;;;;;;10.40;64.21;100006.97;5100197;27;20046;-63
2022/04/22 06:55:16;;;;;;;13.00;7.45;;;;;;;10.50;63.14;100003.59;5100671;27;20038;-65
2022/04/22 06:57:51;;;;;;;8.43;6.03;;;;;;;10.55;62.91;100004.16;5083065;27;20041;-65
2022/04/22 07:00:19;;;;;;;13.85;7.30;;;;;;;10.59;62.92;100011.97;5118584;27;20049;-63
2022/04/22 07:02:45;;;;;;;14.68;7.10;;;;;;;10.55;63.29;100006.81;5118757;27;20401;-63
2022/04/22 07:05:10;;;;;;;12.75;7.32;;;;;;;10.52;62.80;100004.34;5082809;27;20042;-62
2022/04/22 07:07:35;;;;;;;16.60;7.93;;;;;;;10.55;62.69;100005.97;5099977;27;20047;-63
2022/04/22 07:10:00;;;;;;;11.88;7.20;;;;;;;10.63;62.74;100008.97;5100221;27;20450;-62
2022/04/22 07:12:27;;;;;;;12.70;7.63;;;;;;;10.67;62.60;100009.66;5100315;27;20054;-63
2022/04/22 07:14:58;;;;;;;13.27;7.20;;;;;;;10.62;61.88;100007.28;5118373;27;20053;-63
2022/04/22 07:17:22;;;;;;;12.18;7.88;;;;;;;10.49;61.80;100007.25;5117992;27;20107;-62
2022/04/22 07:19:47;;;;;;;13.63;7.97;;;;;;;10.35;62.49;100009.94;5099831;27;20035;-64
2022/04/22 07:22:13;;;;;;;13.90;9.55;;;;;;;10.33;62.70;100011.84;5118175;27;20043;-63
2022/04/22 07:24:38;;;;;;;18.17;8.98;;;;;;;10.27;63.29;100009.56;5099802;27;20050;-63
2022/04/22 07:27:04;;;;;;;17.08;9.35;;;;;;;10.29;63.39;100007.66;5118371;27;20035;-63
2022/04/22 07:29:33;;;;;;;15.90;8.43;;;;;;;10.35;62.93;100003.75;5118584;27;20050;-64
2022/04/22 07:31:57;;;;;;;16.20;11.00;;;;;;;10.35;63.07;100006.41;5118255;27;20064;-62
2022/04/22 07:34:22;;;;;;;15.80;9.00;;;;;;;10.40;63.11;99997.16;5082527;27;20145;-63
2022/04/22 07:36:47;;;;;;;13.05;8.82;;;;;;;10.46;62.60;100007.44;5118129;27;20039;-62
2022/04/22 07:39:12;;;;;;;12.20;9.13;;;;;;;10.51;62.60;100009.78;5099588;27;20046;-63
2022/04/22 07:41:38;;;;;;;12.50;8.40;;;;;;;10.57;62.36;100005.88;5082926;27;20038;-63
2022/04/22 07:46:48;;;;;;;11.60;8.13;;;;;;;10.61;61.78;99992.22;5078963;27;20035;-61
2022/04/22 07:49:13;;;;;;;20.92;9.65;;;;;;;10.60;62.09;100000.34;5097648;27;20130;-62
2022/04/22 07:51:39;;;;;;;14.70;7.80;;;;;;;10.63;61.61;99992.97;5097188;27;20180;-62
2022/04/22 07:54:04;;;;;;;17.00;8.93;;;;;;;10.66;61.65;99983.94;5079075;27;20043;-63
2022/04/22 07:56:29;;;;;;;14.40;8.65;;;;;;;10.70;61.45;99988.97;5098545;27;20050;-63
2022/04/22 07:58:55;;;;;;;14.77;8.55;;;;;;;10.73;61.69;99994.09;5099366;27;20051;-62
2022/04/22 08:01:20;;;;;;;17.00;8.13;;;;;;;10.71;61.71;100000.50;5079972;27;20031;-62
2022/04/22 08:03:45;;;;;;;12.48;8.05;;;;;;;10.65;61.61;100001.75;5088426;27;20041;-65
2022/04/22 08:06:11;;;;;;;14.68;8.10;;;;;;;10.59;61.69;100001.31;5122042;27;20509;-62
2022/04/22 08:08:36;;;;;;;13.57;7.85;;;;;;;10.54;61.79;100002.44;5096532;27;20058;-63
2022/04/22 08:11:01;;;;;;;11.52;7.40;;;;;;;10.57;61.62;99997.88;5106395;27;20038;-63
2022/04/22 08:13:26;;;;;;;25.77;8.40;;;;;;;10.45;61.62;99997.72;5117941;27;20030;-63
2022/04/22 08:15:50;;;;;;;12.15;8.15;;;;;;;10.33;61.97;99995.84;5117336;27;20047;-63
2022/04/22 08:18:15;;;;;;;13.15;8.02;;;;;;;10.34;62.36;99991.38;5078150;27;20088;-63
2022/04/22 08:20:40;;;;;;;12.98;7.82;;;;;;;10.36;62.33;99985.00;5097254;27;20853;-63
2022/04/22 08:23:05;;;;;;;12.13;7.40;;;;;;;10.43;61.66;99994.31;5078022;27;20054;-62
2022/04/22 08:25:30;;;;;;;14.30;8.02;;;;;;;10.41;61.67;99982.03;5086077;27;20070;-62
2022/04/22 08:27:55;;;;;;;18.02;8.45;;;;;;;10.43;62.12;99975.66;5088243;27;20077;-63
2022/04/22 08:30:21;;;;;;;19.23;8.77;;;;;;;10.58;61.79;99986.25;5077346;27;20096;-63
2022/04/22 08:32:46;;;;;;;14.98;7.53;;;;;;;10.74;61.28;99978.94;5097400;27;20043;-63
2022/04/22 08:35:11;;;;;;;16.02;7.15;;;;;;;10.81;60.27;99978.44;5096933;27;20050;-63
2022/04/22 08:37:42;;;;;;;11.02;6.50;;;;;;;10.70;60.77;99980.97;5101100;27;20088;-64
2022/04/22 08:40:08;;;;;;;15.18;7.15;;;;;;;10.72;60.31;99983.53;5108960;27;20058;-63
2022/04/22 08:42:35;;;;;;;8.70;6.38;;;;;;;10.70;60.28;99974.78;5124412;27;20496;-63
2022/04/22 08:45:00;;;;;;;14.85;6.85;;;;;;;10.59;60.50;99970.16;5127142;27;20054;-62
2022/04/22 08:50:16;;;;;;;9.93;5.70;;;;;;;10.68;59.97;99971.34;5097398;27;20050;-62
2022/04/22 08:52:42;;;;;;;10.65;5.22;;;;;;;10.68;60.27;99968.69;5117582;27;20034;-62
2022/04/22 08:55:08;;;;;;;7.38;4.93;;;;;;;10.69;59.88;99976.59;5085569;27;20401;-62
2022/04/22 08:57:33;;;;;;;13.70;5.60;;;;;;;10.64;60.29;99964.50;5086618;27;20083;-63
2022/04/22 09:00:04;;;;;;;9.10;4.85;;;;;;;10.67;60.66;99970.50;5102680;27;20046;-62
2022/04/22 09:02:29;;;;;;;12.60;6.38;;;;;;;10.71;60.72;99968.50;5104124;27;20039;-62
2022/04/22 09:04:56;;;;;;;8.27;5.50;;;;;;;10.69;61.09;99971.25;5078338;27;20058;-61
2022/04/22 09:07:27;;;;;;;10.43;5.97;;;;;;;10.79;61.16;99966.16;5096028;27;20130;-63
2022/04/22 09:09:53;;;;;;;12.55;5.75;;;;;;;10.98;61.05;99966.63;5095252;27;20050;-63
2022/04/22 09:12:27;;;;;;;10.43;6.20;;;;;;;11.20;60.35;99964.19;5096115;27;20054;-63
2022/04/22 09:14:54;;;;;;;11.38;5.75;;;;;;;11.30;60.55;99967.06;5095684;27;20070;-64
2022/04/22 09:17:25;;;;;;;9.40;5.68;;;;;;;11.48;59.58;99964.97;5077553;28;20520;-63
2022/04/22 09:19:51;;;;;;;8.48;5.40;;;;;;;11.52;59.06;99961.94;5077348;28;20075;-63
2022/04/22 09:22:19;;;;;;;8.10;4.85;;;;;;;11.65;58.32;99967.28;5095641;28;20095;-64
2022/04/22 09:24:55;;;;;;;9.32;5.78;;;;;;;11.78;58.08;99949.47;5095499;28;20047;-64
2022/04/22 09:27:32;;;;;;;6.53;5.00;;;;;;;11.87;58.15;99954.13;5096431;28;20087;-63
2022/04/22 09:29:57;;;;;;;8.52;5.65;;;;;;;11.98;57.79;99948.88;5095642;28;20047;-62
2022/04/22 09:32:27;;;;;;;9.07;6.00;;;;;;;12.16;57.36;99952.03;5096079;28;20038;-63
2022/04/22 09:34:54;;;;;;;10.80;5.60;;;;;;;12.19;56.78;99951.78;5078217;28;20047;-63
2022/04/22 09:42:48;;;;;;;10.23;6.15;;;;;;;12.63;55.96;99945.84;5101325;27;20055;-63
2022/04/22 09:45:12;;;;;;;12.57;6.20;;;;;;;12.84;56.34;99939.84;5066663;27;20046;-63
2022/04/22 09:47:38;;;;;;;12.10;5.85;;;;;;;12.97;55.67;99941.47;5082309;27;20573;-63
2022/04/22 09:50:10;;;;;;;9.07;5.88;;;;;;;13.09;55.53;99937.00;5081659;27;20871;-62
2022/04/22 09:52:35;;;;;;;10.18;6.57;;;;;;;13.05;55.10;99936.38;5081570;27;20421;-63
2022/04/22 09:55:09;;;;;;;19.02;7.30;;;;;;;13.07;55.08;99936.25;5099988;27;20058;-64
2022/04/22 09:57:54;;;;;;;10.18;6.60;;;;;;;13.26;55.28;99933.88;5100113;27;20115;-63
2022/04/22 10:00:24;;;;;;;13.05;6.97;;;;;;;13.51;54.68;99930.16;5100094;27;20039;-63
2022/04/22 10:02:50;;;;;;;14.68;6.47;;;;;;;13.99;53.78;99929.88;5081526;27;20051;-63
2022/04/22 10:05:18;;;;;;;14.15;7.70;;;;;;;14.54;52.13;99931.59;5099757;27;20039;-62
2022/04/22 10:07:44;;;;;;;16.33;7.80;;;;;;;14.92;51.78;99922.13;5080958;27;20047;-65
2022/04/22 10:10:11;;;;;;;12.93;8.00;;;;;;;15.06;49.29;99919.97;5101204;27;20042;-63
2022/04/22 10:12:37;;;;;;;12.27;7.70;;;;;;;15.20;49.53;99916.13;5101109;27;20043;-64
2022/04/22 10:15:04;;;;;;;14.15;7.90;;;;;;;15.23;50.05;99923.91;5082854;27;20106;-63
2022/04/22 10:17:30;;;;;;;13.52;7.75;;;;;;;15.14;50.42;99913.94;5101514;27;20059;-63
2022/04/22 10:19:55;;;;;;;12.55;8.40;;;;;;;14.94;50.24;99920.16;5101013;27;20035;-64
2022/04/22 10:22:22;;;;;;;9.85;6.63;;;;;;;14.64;50.41;99924.47;5102001;27;20077;-64
2022/04/22 10:24:46;;;;;;;11.38;6.75;;;;;;;14.31;50.26;99913.84;5102129;27;20074;-64
2022/04/22 10:27:12;;;;;;;12.27;7.28;;;;;;;14.05;51.11;99918.66;5090143;27;20042;-63
2022/04/22 10:29:40;;;;;;;13.60;6.70;;;;;;;13.89;51.88;99910.97;5094605;27;20035;-73
2022/04/22 10:32:05;;;;;;;14.38;8.48;;;;;;;13.81;52.11;99910.75;5111463;27;20039;-66
2022/04/22 10:34:44;;;;;;;12.05;7.20;;;;;;;13.85;52.14;99906.00;5113486;27;20039;-67
2022/04/22 10:37:17;;;;;;;10.50;7.18;;;;;;;13.98;51.52;99910.25;5112022;27;20043;-62
2022/04/22 10:39:42;;;;;;;11.40;7.30;;;;;;;14.13;51.16;99911.66;5103856;27;20047;-63
2022/04/22 10:42:16;;;;;;;11.77;6.97;;;;;;;14.44;50.94;99901.16;5102107;27;20038;-66
2022/04/22 10:47:42;;;;;;;13.60;7.50;;;;;;;14.71;49.59;99904.19;5098986;27;20050;-63
2022/04/22 10:50:29;;;;;;;15.80;7.15;;;;;;;14.73;50.17;99902.22;5103606;27;20117;-63
2022/04/22 10:53:27;;;;;;;15.55;8.40;;;;;;;14.53;50.18;99898.53;5116894;27;20532;-66
2022/04/22 10:55:53;;;;;;;17.02;8.15;;;;;;;14.41;50.86;99896.88;5074416;27;20413;-65
2022/04/22 10:58:20;;;;;;;12.40;8.15;;;;;;;14.25;51.25;99895.56;5100891;27;20046;-65
2022/04/22 11:00:54;;;;;;;11.75;7.60;;;;;;;14.07;51.11;99901.47;5119577;27;20106;-65
2022/04/22 11:03:23;;;;;;;11.27;7.13;;;;;;;13.80;51.49;99895.66;5113921;27;20236;-63
2022/04/22 11:05:47;;;;;;;11.68;7.43;;;;;;;13.57;52.21;99900.19;5100656;27;20417;-65
2022/04/22 11:08:26;;;;;;;8.57;6.75;;;;;;;13.44;52.63;99894.09;5100031;27;20046;-63
2022/04/22 11:10:51;;;;;;;11.88;7.25;;;;;;;13.18;51.96;99889.94;5083312;27;20042;-63
2022/04/22 11:13:33;;;;;;;20.95;7.97;;;;;;;13.10;53.32;99890.50;5100209;27;20099;-64
2022/04/22 11:16:17;;;;;;;13.65;8.48;;;;;;;12.91;53.43;99892.91;5118782;27;20047;-64
2022/04/22 11:18:44;;;;;;;18.45;8.07;;;;;;;12.84;53.69;99891.69;5118824;27;20038;-64
2022/04/22 11:21:19;;;;;;;14.98;7.32;;;;;;;12.82;53.88;99891.78;5100233;27;20073;-66
2022/04/22 11:23:44;;;;;;;14.35;8.15;;;;;;;12.70;53.82;99888.22;5117469;27;20466;-64
2022/04/22 11:26:12;;;;;;;15.15;8.38;;;;;;;12.65;54.49;99890.41;5100048;27;20043;-63
2022/04/22 11:28:39;;;;;;;18.27;8.63;;;;;;;12.61;55.12;99888.09;5118626;27;20125;-65
2022/04/22 11:31:07;;;;;;;15.20;7.55;;;;;;;12.56;54.54;99895.59;5118441;27;20042;-63
2022/04/22 11:33:46;;;;;;;13.20;7.68;;;;;;;12.53;54.86;99894.00;5099047;27;20050;-64
2022/04/22 11:36:11;;;;;;;11.32;7.45;;;;;;;12.36;54.57;99883.72;5097342;27;20070;-62
2022/04/22 11:38:45;;;;;;;10.57;7.20;;;;;;;12.31;54.56;99885.88;5095558;27;20081;-63
2022/04/22 11:41:12;;;;;;;11.50;6.72;;;;;;;12.11;54.41;99881.16;5111795;27;20067;-64
2022/04/22 11:43:36;;;;;;;11.55;7.28;;;;;;;11.94;55.31;99875.25;5116658;27;20429;-63
2022/04/22 11:46:01;;;;;;;11.25;6.65;;;;;;;11.88;55.43;99877.50;5118135;27;20401;-64
2022/04/22 11:48:26;;;;;;;12.68;6.63;;;;;;;11.89;55.45;99873.88;5111518;27;20046;-62
2022/04/22 11:50:53;;;;;;;14.30;6.63;;;;;;;11.76;55.49;99873.91;5112783;27;20038;-62
2022/04/22 11:53:20;;;;;;;13.30;6.90;;;;;;;11.62;56.06;99874.88;5127481;27;20412;-63
2022/04/22 11:55:47;;;;;;;11.15;7.43;;;;;;;11.56;56.22;99872.66;5104477;27;20050;-63
2022/04/22 11:58:13;;;;;;;10.05;6.88;;;;;;;11.54;56.62;99874.59;5107861;27;20126;-62
2022/04/22 12:06:26;;;;;;;15.32;8.52;;;;;;;11.58;56.56;99867.22;4996923;28;20068;-63
2022/04/22 12:09:00;;;;;;;13.05;7.90;;;;;;;11.63;56.26;99863.25;5015129;28;20080;-63
2022/04/22 12:11:25;;;;;;;14.35;7.57;;;;;;;11.55;56.54;99859.41;4980961;28;20159;-63
2022/04/22 12:13:51;;;;;;;12.23;7.75;;;;;;;11.53;57.21;99859.53;4980699;28;20049;-63
2022/04/22 12:16:25;;;;;;;13.77;7.88;;;;;;;11.52;56.98;99852.47;5013784;28;20543;-63
2022/04/22 12:18:52;;;;;;;14.93;8.98;;;;;;;11.50;57.15;99853.56;5013960;28;20067;-64